Avery, Arkansas
Current Conditions -  °F | °C
As of 4:53 AM on Saturday 22 Nov 2014 (Local Time) from KLLQ Reporting Station
Overcast Overcast  
Wind Chill: 13°   Ceiling: 7000
Heat Index: 13°   Visibility: 10mi
Dew Point:   Wind: 5mph
Humidity: 80%   Direction: 170°S
Pressure: 30.23"   Gusts: NA
Location:  33.9283°N, 91.468°W
Report Text: KLLQ 221053Z AUTO 17004KT 10SM OVC070 13/09 A3023 RMK AO2 SLP234 T01280094
Loading
Personal Weather Stations






























Interactive Weather Map New forecast layout! Learn more

10-Day Weather Forecast

Advertisements
Track Severe Weather on mobile